Time;durP1;ratioP1;P1;durP2;ratioP2;P2;SDS_P1;SDS_P2;PMS_P1;PMS_P2;Temp;Humidity;BMP_temperature;BMP_pressure;BME280_temperature;BME280_humidity;BME280_pressure;Samples;Min_cycle;Max_cycle;Signal;HPM_P1;HPM_P2
2024/01/22 00:01:40;;;;;;;56.10;53.05;;;;;;;;;;5036559;28;20090;-60
2024/01/22 00:04:07;;;;;;;57.38;54.17;;;;;;;;;;5038257;28;20051;-60
2024/01/22 00:06:34;;;;;;;54.78;51.97;;;;;;;;;;5034798;28;20053;-60
2024/01/22 00:09:00;;;;;;;53.42;50.72;;;;;;;;;;5032577;28;20512;-61
2024/01/22 00:11:25;;;;;;;53.75;51.00;;;;;;;;;;5032225;28;20128;-60
2024/01/22 00:13:50;;;;;;;52.88;50.17;;;;;;;;;;5035126;28;20112;-60
2024/01/22 00:16:16;;;;;;;55.00;52.10;;;;;;;;;;5033165;28;20152;-60
2024/01/22 00:18:41;;;;;;;55.50;52.67;;;;;;;;;;5034207;28;20029;-61
2024/01/22 00:21:06;;;;;;;55.10;52.30;;;;;;;;;;5038103;28;20120;-60
2024/01/22 00:23:31;;;;;;;55.10;52.30;;;;;;;;;;5032529;28;20086;-60
2024/01/22 00:25:57;;;;;;;52.88;49.92;;;;;;;;;;5039336;28;20425;-60
2024/01/22 00:28:22;;;;;;;56.00;53.20;;;;;;;;;;5032275;28;20049;-60
2024/01/22 00:30:47;;;;;;;53.10;50.40;;;;;;;;;;5034325;28;20024;-60
2024/01/22 00:33:13;;;;;;;51.90;49.20;;;;;;;;;;5033826;28;20037;-61
2024/01/22 00:35:38;;;;;;;52.22;49.53;;;;;;;;;;5033568;28;20045;-60
2024/01/22 00:38:03;;;;;;;54.28;51.45;;;;;;;;;;5030785;28;20032;-60
2024/01/22 00:40:28;;;;;;;53.53;50.65;;;;;;;;;;5033537;28;20660;-60
2024/01/22 00:42:54;;;;;;;52.75;50.03;;;;;;;;;;5032643;28;20051;-60
2024/01/22 00:45:19;;;;;;;53.90;51.20;;;;;;;;;;5033616;28;20115;-60
2024/01/22 00:47:44;;;;;;;56.15;53.35;;;;;;;;;;5032565;28;20077;-60
2024/01/22 00:50:10;;;;;;;57.80;54.85;;;;;;;;;;5033188;28;20110;-60
2024/01/22 00:52:35;;;;;;;56.45;53.38;;;;;;;;;;5034598;28;20163;-60
2024/01/22 00:55:01;;;;;;;58.25;55.20;;;;;;;;;;5034027;28;20456;-60
2024/01/22 00:57:26;;;;;;;56.08;53.22;;;;;;;;;;5030724;28;20045;-60
2024/01/22 00:59:51;;;;;;;58.45;55.38;;;;;;;;;;5033507;28;20092;-57
2024/01/22 01:02:17;;;;;;;56.53;53.63;;;;;;;;;;5033236;28;20628;-60
2024/01/22 01:04:42;;;;;;;57.58;54.58;;;;;;;;;;5035659;28;20037;-60
2024/01/22 01:07:07;;;;;;;59.20;56.08;;;;;;;;;;5032784;28;20049;-60
2024/01/22 01:09:33;;;;;;;58.95;55.92;;;;;;;;;;5029957;28;20080;-56
2024/01/22 01:11:58;;;;;;;60.45;57.40;;;;;;;;;;5033289;28;20125;-54
2024/01/22 01:14:24;;;;;;;58.38;55.35;;;;;;;;;;5031188;28;20042;-61
2024/01/22 01:16:49;;;;;;;57.67;54.45;;;;;;;;;;5031712;28;20120;-60
2024/01/22 01:19:15;;;;;;;57.95;55.00;;;;;;;;;;5033171;28;20395;-60
2024/01/22 01:21:40;;;;;;;56.20;53.30;;;;;;;;;;5032857;28;20036;-60
2024/01/22 01:24:07;;;;;;;56.72;53.72;;;;;;;;;;5032788;28;20037;-61
2024/01/22 01:26:32;;;;;;;57.50;54.60;;;;;;;;;;5030047;28;20029;-57
2024/01/22 01:28:57;;;;;;;59.55;55.75;;;;;;;;;;5033981;28;20478;-56
2024/01/22 01:31:22;;;;;;;56.67;53.80;;;;;;;;;;5034098;28;20029;-60
2024/01/22 01:33:48;;;;;;;57.55;54.55;;;;;;;;;;5030486;28;20041;-60
2024/01/22 01:36:13;;;;;;;57.75;54.63;;;;;;;;;;4995863;28;1043851;-60
2024/01/22 01:38:39;;;;;;;58.78;55.80;;;;;;;;;;5034408;28;20452;-60
2024/01/22 01:41:04;;;;;;;56.40;53.55;;;;;;;;;;5035196;28;20037;-60
2024/01/22 01:43:30;;;;;;;58.13;55.08;;;;;;;;;;5025091;28;20120;-60
2024/01/22 01:45:55;;;;;;;60.30;57.20;;;;;;;;;;5031584;28;20044;-60
2024/01/22 01:48:21;;;;;;;55.97;53.08;;;;;;;;;;5034716;28;20123;-60
2024/01/22 01:50:46;;;;;;;57.63;54.63;;;;;;;;;;5034140;28;20662;-60
2024/01/22 01:53:11;;;;;;;56.95;54.05;;;;;;;;;;5031898;28;20139;-60
2024/01/22 01:55:38;;;;;;;56.30;53.40;;;;;;;;;;5029483;28;20044;-60
2024/01/22 01:58:04;;;;;;;58.67;55.67;;;;;;;;;;5032766;28;20107;-60
2024/01/22 02:00:30;;;;;;;56.80;53.90;;;;;;;;;;5033769;28;20108;-60
2024/01/22 02:02:55;;;;;;;55.97;53.13;;;;;;;;;;5033196;28;20582;-60
2024/01/22 02:05:21;;;;;;;58.88;55.90;;;;;;;;;;5031756;28;20115;-60
2024/01/22 02:07:47;;;;;;;56.53;53.70;;;;;;;;;;5028356;28;20033;-61
2024/01/22 02:10:12;;;;;;;55.58;52.65;;;;;;;;;;5032334;28;20033;-60
2024/01/22 02:12:38;;;;;;;54.63;51.83;;;;;;;;;;5034385;28;20110;-60
2024/01/22 02:15:04;;;;;;;58.40;55.42;;;;;;;;;;5032370;28;20041;-60
2024/01/22 02:17:30;;;;;;;58.53;55.53;;;;;;;;;;5032395;28;20041;-60
2024/01/22 02:19:55;;;;;;;58.08;55.13;;;;;;;;;;5029571;28;20344;-60
2024/01/22 02:22:21;;;;;;;57.38;54.45;;;;;;;;;;5032285;28;20033;-60
2024/01/22 02:24:46;;;;;;;60.25;57.13;;;;;;;;;;5032365;28;20057;-60
2024/01/22 02:27:11;;;;;;;57.78;54.88;;;;;;;;;;5031391;28;20048;-61
2024/01/22 02:29:37;;;;;;;58.42;55.20;;;;;;;;;;5025904;28;20363;-58
2024/01/22 02:32:02;;;;;;;56.90;53.90;;;;;;;;;;5031339;28;20125;-58
2024/01/22 02:34:28;;;;;;;56.78;53.85;;;;;;;;;;5029567;28;20047;-61
2024/01/22 02:36:53;;;;;;;56.20;53.35;;;;;;;;;;5029551;28;20094;-61
2024/01/22 02:39:18;;;;;;;57.45;54.55;;;;;;;;;;5029107;28;20041;-60
2024/01/22 02:41:44;;;;;;;57.80;54.85;;;;;;;;;;5033362;28;20068;-60
2024/01/22 02:44:09;;;;;;;60.00;56.97;;;;;;;;;;5033030;28;20040;-61
2024/01/22 02:46:34;;;;;;;58.95;55.97;;;;;;;;;;5030278;28;20443;-61
2024/01/22 02:49:00;;;;;;;60.95;57.78;;;;;;;;;;5031801;28;20044;-62
2024/01/22 02:51:25;;;;;;;58.95;55.90;;;;;;;;;;5031632;28;20068;-61
2024/01/22 02:53:52;;;;;;;58.47;55.00;;;;;;;;;;5030796;28;20029;-61
2024/01/22 02:56:21;;;;;;;60.03;56.95;;;;;;;;;;5030527;28;20258;-61
2024/01/22 02:58:47;;;;;;;57.88;54.97;;;;;;;;;;5031731;28;20029;-58
2024/01/22 03:01:12;;;;;;;60.53;57.47;;;;;;;;;;5031185;28;20037;-62
2024/01/22 03:03:38;;;;;;;58.17;55.22;;;;;;;;;;5029892;28;20110;-58
2024/01/22 03:06:03;;;;;;;60.00;56.80;;;;;;;;;;5028991;28;20044;-58
2024/01/22 03:08:28;;;;;;;60.67;57.40;;;;;;;;;;5030357;28;20383;-58
2024/01/22 03:10:54;;;;;;;60.92;57.88;;;;;;;;;;5032328;28;20041;-58
2024/01/22 03:13:19;;;;;;;59.10;56.15;;;;;;;;;;5027109;28;20040;-58
2024/01/22 03:15:45;;;;;;;58.58;55.63;;;;;;;;;;5028302;28;20514;-58
2024/01/22 03:18:10;;;;;;;60.33;57.03;;;;;;;;;;5029399;28;20588;-58
2024/01/22 03:20:37;;;;;;;57.15;54.22;;;;;;;;;;5032903;28;20028;-59
2024/01/22 03:23:03;;;;;;;60.65;57.58;;;;;;;;;;5027865;28;20044;-58
2024/01/22 03:25:29;;;;;;;62.08;58.97;;;;;;;;;;5032687;28;20048;-58
2024/01/22 03:27:54;;;;;;;63.03;59.85;;;;;;;;;;5030035;28;20038;-59
2024/01/22 03:30:19;;;;;;;63.75;60.50;;;;;;;;;;5030112;28;20053;-61
2024/01/22 03:32:44;;;;;;;66.75;61.65;;;;;;;;;;5031203;28;20034;-61
2024/01/22 03:35:10;;;;;;;66.68;63.28;;;;;;;;;;5032227;28;20456;-61
2024/01/22 03:37:35;;;;;;;63.90;60.63;;;;;;;;;;5034403;28;20034;-61
2024/01/22 03:40:00;;;;;;;65.28;61.88;;;;;;;;;;5030645;28;20363;-61
2024/01/22 03:42:26;;;;;;;62.08;58.88;;;;;;;;;;5034728;28;20160;-61
2024/01/22 03:44:53;;;;;;;63.20;60.00;;;;;;;;;;5030935;28;20367;-61
2024/01/22 03:47:18;;;;;;;63.08;59.90;;;;;;;;;;5034201;28;20418;-61
2024/01/22 03:49:44;;;;;;;67.32;63.97;;;;;;;;;;5031858;28;20028;-61
2024/01/22 03:52:09;;;;;;;62.80;59.63;;;;;;;;;;5031422;28;20036;-61
2024/01/22 03:54:34;;;;;;;64.28;60.88;;;;;;;;;;5028308;28;20645;-61
2024/01/22 03:57:06;;;;;;;62.20;59.05;;;;;;;;;;5028101;28;20611;-61
2024/01/22 03:59:31;;;;;;;64.75;61.45;;;;;;;;;;5029677;28;20048;-61
2024/01/22 04:01:57;;;;;;;64.80;61.55;;;;;;;;;;5028061;28;20671;-61
2024/01/22 04:04:22;;;;;;;65.57;62.30;;;;;;;;;;5029190;28;20021;-61
2024/01/22 04:06:47;;;;;;;61.72;58.60;;;;;;;;;;5032218;28;20033;-62
2024/01/22 04:09:12;;;;;;;62.67;59.45;;;;;;;;;;5030947;28;20036;-59
2024/01/22 04:11:38;;;;;;;64.22;60.97;;;;;;;;;;5029841;28;20205;-61
2024/01/22 04:14:04;;;;;;;63.05;59.90;;;;;;;;;;5028684;28;20806;-61
2024/01/22 04:16:29;;;;;;;63.25;59.97;;;;;;;;;;5030756;28;20033;-60
2024/01/22 04:18:54;;;;;;;65.88;62.53;;;;;;;;;;5030218;28;20025;-61
2024/01/22 04:21:21;;;;;;;62.10;59.00;;;;;;;;;;5031924;28;20359;-59
2024/01/22 04:23:47;;;;;;;66.45;63.10;;;;;;;;;;5031419;28;20037;-59
2024/01/22 04:26:12;;;;;;;61.72;58.63;;;;;;;;;;5028857;28;20052;-59
2024/01/22 04:28:37;;;;;;;64.25;61.03;;;;;;;;;;5025935;28;20029;-59
2024/01/22 04:31:03;;;;;;;63.35;60.13;;;;;;;;;;5027621;28;20111;-62
2024/01/22 04:33:28;;;;;;;63.75;60.55;;;;;;;;;;5033662;28;20670;-62
2024/01/22 04:35:53;;;;;;;69.53;65.95;;;;;;;;;;5031770;28;20048;-61
2024/01/22 04:38:19;;;;;;;68.95;65.45;;;;;;;;;;5030988;28;20502;-60
2024/01/22 04:40:44;;;;;;;70.50;66.97;;;;;;;;;;5032878;28;20704;-61
2024/01/22 04:43:09;;;;;;;68.22;64.80;;;;;;;;;;5029552;28;20575;-60
2024/01/22 04:45:35;;;;;;;66.18;62.85;;;;;;;;;;5035590;28;20045;-61
2024/01/22 04:48:00;;;;;;;68.10;64.70;;;;;;;;;;5032306;28;20026;-61
2024/01/22 04:50:25;;;;;;;69.82;66.32;;;;;;;;;;5031121;28;20116;-61
2024/01/22 04:52:51;;;;;;;68.75;65.25;;;;;;;;;;5032114;28;20406;-61
2024/01/22 04:55:16;;;;;;;66.47;63.17;;;;;;;;;;5038391;28;20042;-61
2024/01/22 04:57:42;;;;;;;71.30;67.72;;;;;;;;;;5034590;28;20076;-61
2024/01/22 05:00:07;;;;;;;71.10;67.55;;;;;;;;;;5031672;28;20029;-61
2024/01/22 05:02:33;;;;;;;70.35;66.80;;;;;;;;;;5032796;28;20037;-61
2024/01/22 05:05:00;;;;;;;72.15;68.53;;;;;;;;;;5029597;28;20040;-61
2024/01/22 05:07:25;;;;;;;72.57;68.97;;;;;;;;;;5034674;28;20037;-61
2024/01/22 05:09:58;;;;;;;75.07;71.28;;;;;;;;;;5017708;28;20051;-61
2024/01/22 05:12:24;;;;;;;69.78;66.25;;;;;;;;;;5028763;28;20045;-61
2024/01/22 05:14:49;;;;;;;77.35;73.53;;;;;;;;;;5030797;28;20047;-60
2024/01/22 05:17:15;;;;;;;76.10;72.25;;;;;;;;;;5033843;28;20025;-60
2024/01/22 05:19:40;;;;;;;76.88;73.07;;;;;;;;;;5020477;28;20033;-60
2024/01/22 05:22:05;;;;;;;80.80;76.78;;;;;;;;;;5030593;28;20467;-59
2024/01/22 05:24:31;;;;;;;82.90;78.72;;;;;;;;;;5028725;28;20044;-60
2024/01/22 05:26:56;;;;;;;80.78;76.78;;;;;;;;;;5004214;28;20032;-61
2024/01/22 05:29:21;;;;;;;82.45;78.35;;;;;;;;;;5034359;28;20068;-60
2024/01/22 05:31:47;;;;;;;85.80;81.53;;;;;;;;;;5032055;28;20041;-62
2024/01/22 05:34:12;;;;;;;86.95;82.65;;;;;;;;;;5034087;28;20034;-61
2024/01/22 05:36:37;;;;;;;82.10;78.05;;;;;;;;;;5028846;28;20378;-60
2024/01/22 05:39:06;;;;;;;83.35;79.18;;;;;;;;;;5031198;28;20036;-61
2024/01/22 05:41:31;;;;;;;90.35;85.85;;;;;;;;;;5030213;28;20025;-61
2024/01/22 05:43:57;;;;;;;81.20;77.10;;;;;;;;;;5032051;28;20099;-60
2024/01/22 05:46:22;;;;;;;78.63;74.72;;;;;;;;;;5030595;28;20072;-60
2024/01/22 05:48:48;;;;;;;81.25;77.22;;;;;;;;;;5030517;28;20045;-62
2024/01/22 05:51:13;;;;;;;83.15;79.00;;;;;;;;;;5031209;28;20086;-60
2024/01/22 05:53:40;;;;;;;83.00;78.85;;;;;;;;;;5033449;28;20493;-61
2024/01/22 05:56:06;;;;;;;80.95;76.95;;;;;;;;;;5033604;28;20076;-61
2024/01/22 05:58:31;;;;;;;81.45;77.30;;;;;;;;;;5031781;28;20061;-60
2024/01/22 06:00:56;;;;;;;84.72;80.47;;;;;;;;;;5033372;28;20099;-60
2024/01/22 06:03:21;;;;;;;83.30;79.10;;;;;;;;;;5031769;28;20032;-60
2024/01/22 06:05:47;;;;;;;82.38;78.32;;;;;;;;;;5028532;28;20087;-60
2024/01/22 06:08:12;;;;;;;82.32;78.25;;;;;;;;;;5031485;28;20025;-62
2024/01/22 06:10:37;;;;;;;80.13;76.18;;;;;;;;;;5034444;28;20075;-61
2024/01/22 06:13:03;;;;;;;78.80;74.88;;;;;;;;;;5029769;28;20061;-61
2024/01/22 06:15:28;;;;;;;83.07;78.93;;;;;;;;;;5030982;28;20037;-61
2024/01/22 06:17:53;;;;;;;83.63;79.40;;;;;;;;;;5030633;28;20451;-60
2024/01/22 06:20:19;;;;;;;86.72;82.45;;;;;;;;;;5030432;28;20080;-60
2024/01/22 06:22:44;;;;;;;89.82;85.40;;;;;;;;;;5030201;28;20041;-61
2024/01/22 06:25:09;;;;;;;84.80;80.60;;;;;;;;;;5031198;28;20099;-61
2024/01/22 06:27:35;;;;;;;88.55;84.15;;;;;;;;;;5025599;28;20090;-61
2024/01/22 06:30:01;;;;;;;89.13;84.72;;;;;;;;;;5032782;28;20115;-60
2024/01/22 06:32:27;;;;;;;88.32;83.93;;;;;;;;;;5032647;28;20412;-60
2024/01/22 06:34:53;;;;;;;88.68;84.28;;;;;;;;;;5032033;28;20167;-60
2024/01/22 06:37:22;;;;;;;84.22;80.00;;;;;;;;;;5032589;28;20121;-60
2024/01/22 06:39:47;;;;;;;86.65;82.35;;;;;;;;;;5031200;28;20026;-60
2024/01/22 06:42:13;;;;;;;86.05;81.70;;;;;;;;;;5029266;28;20291;-60
2024/01/22 06:44:38;;;;;;;90.22;85.65;;;;;;;;;;5030138;28;20098;-60
2024/01/22 06:47:04;;;;;;;82.30;77.90;;;;;;;;;;5031722;28;20390;-59
2024/01/22 06:49:30;;;;;;;82.15;78.10;;;;;;;;;;5034794;28;20741;-60
2024/01/22 06:51:55;;;;;;;80.43;76.43;;;;;;;;;;5030888;28;20029;-59
2024/01/22 06:54:20;;;;;;;76.82;72.82;;;;;;;;;;5032708;28;20605;-60
2024/01/22 06:56:46;;;;;;;84.38;80.20;;;;;;;;;;5031331;28;20040;-60
2024/01/22 06:59:11;;;;;;;84.05;79.85;;;;;;;;;;5034709;28;20458;-60
2024/01/22 07:01:37;;;;;;;81.88;77.85;;;;;;;;;;5033322;28;20033;-59
2024/01/22 07:04:03;;;;;;;77.40;73.57;;;;;;;;;;5031693;28;20097;-60
2024/01/22 07:06:28;;;;;;;78.15;74.28;;;;;;;;;;5030707;28;21162;-60
2024/01/22 07:08:54;;;;;;;81.25;77.15;;;;;;;;;;5031095;28;20139;-60
2024/01/22 07:11:19;;;;;;;84.68;80.47;;;;;;;;;;5028971;28;20087;-60
2024/01/22 07:13:44;;;;;;;86.85;82.53;;;;;;;;;;5029858;28;20759;-60
2024/01/22 07:16:10;;;;;;;85.10;80.88;;;;;;;;;;5032595;28;20375;-60
2024/01/22 07:18:35;;;;;;;86.68;82.40;;;;;;;;;;5028858;28;20255;-61
2024/01/22 07:21:00;;;;;;;80.47;76.53;;;;;;;;;;5029900;28;20085;-61
2024/01/22 07:23:26;;;;;;;90.93;86.45;;;;;;;;;;5030584;28;20037;-61
2024/01/22 07:25:54;;;;;;;83.68;79.55;;;;;;;;;;5028492;28;20060;-60
2024/01/22 07:28:19;;;;;;;90.57;85.95;;;;;;;;;;5028067;28;20411;-60
2024/01/22 07:30:45;;;;;;;91.93;87.40;;;;;;;;;;5030054;28;20037;-61
2024/01/22 07:33:10;;;;;;;84.72;80.53;;;;;;;;;;5029945;28;20478;-60
2024/01/22 07:35:36;;;;;;;87.35;83.00;;;;;;;;;;5033119;28;20462;-60
2024/01/22 07:38:01;;;;;;;87.43;83.07;;;;;;;;;;5032256;28;20150;-60
2024/01/22 07:40:28;;;;;;;91.10;86.50;;;;;;;;;;5034995;28;20064;-60
2024/01/22 07:42:53;;;;;;;91.65;87.13;;;;;;;;;;5030420;28;20037;-61
2024/01/22 07:45:19;;;;;;;88.57;84.15;;;;;;;;;;5032348;28;20034;-60
2024/01/22 07:47:44;;;;;;;87.22;82.68;;;;;;;;;;5032041;28;20048;-60
2024/01/22 07:50:16;;;;;;;90.93;86.43;;;;;;;;;;5029574;28;20045;-54
2024/01/22 07:52:42;;;;;;;88.10;83.72;;;;;;;;;;5033224;28;20037;-54
2024/01/22 07:55:08;;;;;;;85.43;81.18;;;;;;;;;;5016955;28;20222;-51
2024/01/22 07:57:34;;;;;;;84.50;80.35;;;;;;;;;;5030712;28;20021;-55
2024/01/22 08:00:00;;;;;;;87.95;83.60;;;;;;;;;;5028275;28;20034;-55
2024/01/22 08:02:25;;;;;;;86.70;82.40;;;;;;;;;;5031015;28;20226;-52
2024/01/22 08:04:51;;;;;;;88.60;84.20;;;;;;;;;;5030399;28;20039;-51
2024/01/22 08:07:17;;;;;;;76.70;72.80;;;;;;;;;;5032931;28;20041;-52
2024/01/22 08:09:43;;;;;;;73.70;70.00;;;;;;;;;;5034331;28;20833;-54
2024/01/22 08:12:08;;;;;;;71.15;67.60;;;;;;;;;;5033709;28;20064;-54
2024/01/22 08:14:34;;;;;;;73.93;70.15;;;;;;;;;;5035773;28;20398;-56
2024/01/22 08:17:01;;;;;;;68.80;65.38;;;;;;;;;;5032741;28;20033;-55
2024/01/22 08:19:27;;;;;;;68.63;65.22;;;;;;;;;;5034996;28;20475;-51
2024/01/22 08:21:53;;;;;;;71.28;67.68;;;;;;;;;;5032143;28;20378;-53
2024/01/22 08:24:19;;;;;;;71.47;67.88;;;;;;;;;;5038009;28;20025;-55
2024/01/22 08:26:45;;;;;;;76.38;72.47;;;;;;;;;;5025913;28;20068;-56
2024/01/22 08:29:11;;;;;;;70.57;67.07;;;;;;;;;;5034309;28;20123;-56
2024/01/22 08:31:37;;;;;;;69.78;66.22;;;;;;;;;;5033324;28;20091;-54
2024/01/22 08:34:03;;;;;;;72.07;68.47;;;;;;;;;;5034050;28;20040;-53
2024/01/22 08:36:28;;;;;;;70.80;67.22;;;;;;;;;;5034115;28;20033;-55
2024/01/22 08:38:54;;;;;;;70.88;67.30;;;;;;;;;;5030598;28;20033;-52
2024/01/22 08:41:21;;;;;;;73.85;70.00;;;;;;;;;;5032202;28;20032;-53
2024/01/22 08:43:46;;;;;;;71.75;68.15;;;;;;;;;;5025890;28;20124;-54
2024/01/22 08:46:12;;;;;;;69.07;65.63;;;;;;;;;;5034336;28;20119;-54
2024/01/22 08:48:37;;;;;;;69.65;66.10;;;;;;;;;;5035509;28;20737;-51
2024/01/22 08:51:02;;;;;;;74.80;71.05;;;;;;;;;;5030363;28;20193;-53
2024/01/22 08:53:28;;;;;;;72.18;68.47;;;;;;;;;;5030316;28;20116;-56
2024/01/22 08:55:53;;;;;;;72.55;68.88;;;;;;;;;;5032460;28;20509;-52
2024/01/22 08:58:19;;;;;;;71.30;67.72;;;;;;;;;;5030776;28;20061;-52
2024/01/22 09:00:44;;;;;;;73.45;69.80;;;;;;;;;;5033482;28;20037;-54
2024/01/22 09:03:09;;;;;;;74.95;71.03;;;;;;;;;;5034174;28;20394;-55
2024/01/22 09:05:35;;;;;;;71.65;68.07;;;;;;;;;;5033909;28;20029;-54
2024/01/22 09:08:00;;;;;;;75.95;72.15;;;;;;;;;;5031400;28;20037;-54
2024/01/22 09:10:26;;;;;;;77.90;73.85;;;;;;;;;;5033091;28;20371;-53
2024/01/22 09:12:54;;;;;;;75.05;71.30;;;;;;;;;;5033762;28;20405;-52
2024/01/22 09:15:20;;;;;;;82.15;78.03;;;;;;;;;;5036110;28;20037;-55
2024/01/22 09:17:45;;;;;;;81.53;77.47;;;;;;;;;;5034753;28;20417;-53
2024/01/22 09:20:11;;;;;;;78.90;74.90;;;;;;;;;;5033156;28;20056;-55
2024/01/22 09:22:37;;;;;;;79.32;75.38;;;;;;;;;;5030668;28;20040;-52
2024/01/22 09:25:03;;;;;;;75.50;71.72;;;;;;;;;;5031975;28;20468;-54
2024/01/22 09:27:29;;;;;;;78.63;74.72;;;;;;;;;;5030611;28;20068;-53
2024/01/22 09:29:55;;;;;;;73.45;69.75;;;;;;;;;;5034060;28;20051;-52
2024/01/22 09:32:21;;;;;;;74.90;71.15;;;;;;;;;;5033194;28;20548;-51
2024/01/22 09:34:46;;;;;;;78.80;74.90;;;;;;;;;;5033180;28;20029;-54
2024/01/22 09:37:11;;;;;;;80.45;76.35;;;;;;;;;;5030619;28;20105;-51
2024/01/22 09:39:37;;;;;;;78.75;74.80;;;;;;;;;;5033341;28;20029;-54
2024/01/22 09:42:04;;;;;;;81.68;77.63;;;;;;;;;;5030359;28;20037;-52
2024/01/22 09:44:30;;;;;;;73.60;69.93;;;;;;;;;;5035330;28;20486;-51
2024/01/22 09:46:56;;;;;;;84.90;80.68;;;;;;;;;;5031162;28;20122;-54
2024/01/22 09:49:21;;;;;;;84.07;79.93;;;;;;;;;;5037281;28;20045;-54
2024/01/22 09:51:47;;;;;;;83.55;79.45;;;;;;;;;;5033059;28;20037;-56
2024/01/22 09:54:18;;;;;;;78.45;74.45;;;;;;;;;;5033350;28;20095;-54
2024/01/22 09:56:51;;;;;;;;;;;;;;;;;;5033049;28;20029;-54
2024/01/22 09:59:19;;;;;;;80.28;76.28;;;;;;;;;;5032256;28;19921;-55
2024/01/22 10:01:47;;;;;;;82.63;78.50;;;;;;;;;;5033897;28;20479;-55
2024/01/22 10:04:13;;;;;;;80.57;76.57;;;;;;;;;;5028797;28;20048;-54
2024/01/22 10:06:40;;;;;;;80.55;76.45;;;;;;;;;;5030717;28;20514;-54
2024/01/22 10:09:05;;;;;;;86.45;81.78;;;;;;;;;;5030658;28;20117;-55
2024/01/22 10:11:31;;;;;;;78.32;74.40;;;;;;;;;;5033710;28;20420;-54
2024/01/22 10:13:57;;;;;;;79.07;75.07;;;;;;;;;;5028083;28;20399;-55
2024/01/22 10:16:26;;;;;;;73.97;70.28;;;;;;;;;;5023462;28;20033;-54
2024/01/22 10:19:08;;;;;;;80.30;76.30;;;;;;;;;;5029904;28;20030;-52
2024/01/22 10:21:38;;;;;;;75.25;71.50;;;;;;;;;;5032915;28;20300;-51
2024/01/22 10:24:08;;;;;;;77.87;73.93;;;;;;;;;;5033211;28;20455;-55
2024/01/22 10:26:35;;;;;;;79.63;75.53;;;;;;;;;;5033576;28;20272;-53
2024/01/22 10:29:22;;;;;;;84.57;79.32;;;;;;;;;;5030234;28;20180;-53
2024/01/22 10:32:01;;;;;;;81.63;77.43;;;;;;;;;;5029671;28;20104;-50
2024/01/22 10:34:29;;;;;;;77.50;73.63;;;;;;;;;;5032709;28;20037;-52
2024/01/22 10:37:10;;;;;;;87.75;83.40;;;;;;;;;;5033287;28;20460;-52
2024/01/22 10:39:41;;;;;;;89.15;84.70;;;;;;;;;;5030893;28;20413;-51
2024/01/22 10:42:11;;;;;;;92.35;87.75;;;;;;;;;;5030884;28;20108;-51
2024/01/22 10:44:38;;;;;;;98.35;93.47;;;;;;;;;;5033488;28;20428;-53
2024/01/22 10:47:04;;;;;;;94.07;89.28;;;;;;;;;;5030049;28;20667;-50
2024/01/22 10:49:31;;;;;;;102.45;97.18;;;;;;;;;;5030338;28;20087;-53
2024/01/22 10:52:00;;;;;;;97.53;92.68;;;;;;;;;;5031785;28;20034;-51
2024/01/22 10:54:27;;;;;;;100.82;95.75;;;;;;;;;;5030387;28;20025;-53
2024/01/22 10:56:59;;;;;;;100.60;95.60;;;;;;;;;;5032839;28;20029;-51
2024/01/22 10:59:26;;;;;;;102.85;97.68;;;;;;;;;;5029979;28;20328;-53
2024/01/22 11:01:53;;;;;;;102.20;96.75;;;;;;;;;;5030447;28;20491;-54
2024/01/22 11:04:25;;;;;;;107.68;102.28;;;;;;;;;;5032949;28;20436;-55
2024/01/22 11:06:56;;;;;;;105.38;100.13;;;;;;;;;;5022399;28;20037;-52
2024/01/22 11:09:22;;;;;;;108.28;102.85;;;;;;;;;;5033518;28;20042;-53
2024/01/22 11:11:51;;;;;;;104.85;99.65;;;;;;;;;;5031709;28;20025;-54
2024/01/22 11:14:16;;;;;;;99.95;94.97;;;;;;;;;;5028383;28;20582;-56
2024/01/22 11:16:41;;;;;;;108.85;103.38;;;;;;;;;;5032928;28;20105;-56
2024/01/22 11:19:07;;;;;;;96.20;91.40;;;;;;;;;;5030424;28;20032;-61
2024/01/22 11:21:37;;;;;;;105.18;99.93;;;;;;;;;;5029630;28;20049;-54
2024/01/22 11:24:04;;;;;;;106.93;101.53;;;;;;;;;;5025834;28;20056;-61
2024/01/22 11:26:29;;;;;;;107.88;102.53;;;;;;;;;;5029463;28;20059;-61
2024/01/22 11:29:21;;;;;;;102.75;97.63;;;;;;;;;;5029934;28;20045;-61
2024/01/22 11:31:48;;;;;;;92.20;87.53;;;;;;;;;;5031328;28;20037;-61
2024/01/22 11:34:14;;;;;;;103.93;98.50;;;;;;;;;;5028038;28;20475;-61
2024/01/22 11:36:48;;;;;;;95.80;91.03;;;;;;;;;;5031241;28;20049;-61
2024/01/22 11:39:32;;;;;;;96.60;91.80;;;;;;;;;;5029396;28;20108;-60
2024/01/22 11:41:57;;;;;;;104.95;99.70;;;;;;;;;;5034364;28;20029;-51
2024/01/22 11:44:26;;;;;;;112.60;106.88;;;;;;;;;;5034408;28;20336;-60
2024/01/22 11:47:08;;;;;;;114.75;109.03;;;;;;;;;;5035060;28;20029;-61
2024/01/22 11:49:33;;;;;;;125.97;119.70;;;;;;;;;;5035572;28;20033;-56
2024/01/22 11:52:09;;;;;;;124.78;118.45;;;;;;;;;;5033061;28;20037;-56
2024/01/22 11:54:34;;;;;;;113.32;107.65;;;;;;;;;;5035617;28;20037;-54
2024/01/22 11:57:00;;;;;;;114.90;109.15;;;;;;;;;;5033667;28;20368;-56
2024/01/22 11:59:25;;;;;;;123.78;117.57;;;;;;;;;;5033435;28;20033;-55
2024/01/22 12:01:50;;;;;;;130.23;123.70;;;;;;;;;;5036058;28;20112;-56
2024/01/22 12:04:15;;;;;;;126.18;119.78;;;;;;;;;;5037050;28;20090;-55
2024/01/22 12:06:50;;;;;;;109.00;103.53;;;;;;;;;;5033600;28;20452;-54
2024/01/22 12:09:16;;;;;;;113.10;107.32;;;;;;;;;;5033676;28;20037;-55
2024/01/22 12:11:53;;;;;;;111.75;106.13;;;;;;;;;;5035947;28;21277;-61
2024/01/22 12:14:18;;;;;;;104.47;99.28;;;;;;;;;;5035633;28;20506;-61
2024/01/22 12:16:44;;;;;;;106.00;100.70;;;;;;;;;;5036520;28;20126;-61
2024/01/22 12:19:12;;;;;;;102.18;97.07;;;;;;;;;;5034076;28;20041;-61
2024/01/22 12:21:38;;;;;;;102.60;97.45;;;;;;;;;;5033870;28;20033;-61
2024/01/22 12:24:12;;;;;;;96.55;91.72;;;;;;;;;;5032603;28;20025;-61
2024/01/22 12:26:40;;;;;;;100.40;95.40;;;;;;;;;;5034600;28;20112;-56
2024/01/22 12:29:06;;;;;;;106.30;101.00;;;;;;;;;;5034159;28;20044;-52
2024/01/22 12:31:32;;;;;;;109.40;103.90;;;;;;;;;;5035564;28;20078;-60
2024/01/22 12:34:09;;;;;;;102.20;97.10;;;;;;;;;;5035617;28;20352;-60
2024/01/22 12:36:34;;;;;;;104.10;98.78;;;;;;;;;;5033264;28;20032;-61
2024/01/22 12:39:03;;;;;;;102.25;97.15;;;;;;;;;;5034104;28;20048;-61
2024/01/22 12:41:31;;;;;;;109.28;103.75;;;;;;;;;;5030618;28;20025;-60
2024/01/22 12:43:57;;;;;;;105.00;99.75;;;;;;;;;;5032221;28;20039;-61
2024/01/22 12:46:23;;;;;;;110.28;104.75;;;;;;;;;;5034339;28;20371;-61
2024/01/22 12:48:49;;;;;;;113.55;107.82;;;;;;;;;;5033156;28;20038;-61
2024/01/22 12:51:16;;;;;;;120.93;114.85;;;;;;;;;;5032412;28;20045;-60
2024/01/22 12:53:44;;;;;;;124.80;118.50;;;;;;;;;;5031908;28;20223;-61
2024/01/22 12:56:09;;;;;;;128.10;121.30;;;;;;;;;;5033321;28;20471;-52
2024/01/22 12:58:36;;;;;;;136.13;129.27;;;;;;;;;;5032150;28;20082;-56
2024/01/22 13:01:01;;;;;;;135.77;128.90;;;;;;;;;;5032411;28;20037;-54
2024/01/22 13:03:27;;;;;;;142.57;135.38;;;;;;;;;;5034077;28;20405;-60
2024/01/22 13:05:52;;;;;;;130.55;124.03;;;;;;;;;;5031753;28;20033;-53
2024/01/22 13:08:18;;;;;;;133.50;126.80;;;;;;;;;;5032769;28;20044;-60
2024/01/22 13:10:44;;;;;;;133.18;126.40;;;;;;;;;;5031429;28;20130;-60
2024/01/22 13:13:11;;;;;;;134.85;128.05;;;;;;;;;;5033399;28;20098;-61
2024/01/22 13:15:36;;;;;;;152.77;144.98;;;;;;;;;;5033414;28;20068;-52
2024/01/22 13:18:02;;;;;;;156.95;149.02;;;;;;;;;;5035103;28;20300;-61
2024/01/22 13:20:27;;;;;;;157.38;149.40;;;;;;;;;;5031889;28;20025;-60
2024/01/22 13:22:53;;;;;;;153.00;145.27;;;;;;;;;;5033823;28;20040;-61
2024/01/22 13:25:19;;;;;;;142.07;134.85;;;;;;;;;;5032927;28;20075;-60
2024/01/22 13:27:49;;;;;;;142.45;135.25;;;;;;;;;;5032555;28;20059;-61
2024/01/22 13:30:17;;;;;;;126.45;120.13;;;;;;;;;;5032183;28;20047;-61
2024/01/22 13:32:43;;;;;;;129.07;122.55;;;;;;;;;;5034198;28;20029;-61
2024/01/22 13:35:08;;;;;;;124.32;118.07;;;;;;;;;;5031855;28;20529;-61
2024/01/22 13:37:34;;;;;;;115.97;110.07;;;;;;;;;;5028559;28;20529;-61
2024/01/22 13:39:59;;;;;;;117.95;112.00;;;;;;;;;;5019775;28;20033;-56
2024/01/22 13:42:25;;;;;;;115.55;109.75;;;;;;;;;;5030730;28;20486;-57
2024/01/22 13:44:53;;;;;;;112.82;107.18;;;;;;;;;;5028845;28;20694;-60
2024/01/22 13:47:21;;;;;;;106.00;100.72;;;;;;;;;;5021987;28;20042;-55
2024/01/22 13:49:47;;;;;;;100.18;95.20;;;;;;;;;;5034874;28;20102;-56
2024/01/22 13:52:12;;;;;;;97.03;91.95;;;;;;;;;;5034089;28;20045;-61
2024/01/22 13:54:39;;;;;;;99.93;94.93;;;;;;;;;;5034322;28;20498;-61
2024/01/22 13:57:04;;;;;;;94.38;89.65;;;;;;;;;;5034786;28;20033;-62
2024/01/22 13:59:30;;;;;;;90.30;85.75;;;;;;;;;;5029752;28;20422;-61
2024/01/22 14:01:55;;;;;;;90.80;86.25;;;;;;;;;;5033188;28;20049;-62
2024/01/22 14:04:22;;;;;;;88.28;83.75;;;;;;;;;;5028167;28;20501;-62
2024/01/22 14:06:47;;;;;;;98.57;93.68;;;;;;;;;;5025695;28;20103;-62
2024/01/22 14:09:14;;;;;;;90.28;85.75;;;;;;;;;;5026403;28;20068;-62